sensor_id;sensor_type;location;lat;lon;timestamp;temperature;humidity
13561;DHT22;6852;51.686;5.314;2023-05-20T00:02:12;13.40;99.90
13561;DHT22;6852;51.686;5.314;2023-05-20T00:04:39;13.40;1.00
13561;DHT22;6852;51.686;5.314;2023-05-20T00:07:08;13.40;1.00
13561;DHT22;6852;51.686;5.314;2023-05-20T00:09:36;13.40;1.00
13561;DHT22;6852;51.686;5.314;2023-05-20T00:12:04;13.40;99.90
13561;DHT22;6852;51.686;5.314;2023-05-20T00:14:31;13.40;99.90
13561;DHT22;6852;51.686;5.314;2023-05-20T00:16:58;13.40;99.90
13561;DHT22;6852;51.686;5.314;2023-05-20T00:19:25;13.40;99.90
13561;DHT22;6852;51.686;5.314;2023-05-20T00:21:51;13.40;99.90
13561;DHT22;6852;51.686;5.314;2023-05-20T00:24:18;13.30;99.90
13561;DHT22;6852;51.686;5.314;2023-05-20T00:26:45;13.30;99.90
13561;DHT22;6852;51.686;5.314;2023-05-20T00:29:12;13.30;99.90
13561;DHT22;6852;51.686;5.314;2023-05-20T00:31:39;13.30;99.90
13561;DHT22;6852;51.686;5.314;2023-05-20T00:34:07;13.20;99.90
13561;DHT22;6852;51.686;5.314;2023-05-20T00:36:34;13.20;99.90
13561;DHT22;6852;51.686;5.314;2023-05-20T00:39:01;13.20;99.90
13561;DHT22;6852;51.686;5.314;2023-05-20T00:41:28;13.10;99.90
13561;DHT22;6852;51.686;5.314;2023-05-20T00:43:55;13.20;99.90
13561;DHT22;6852;51.686;5.314;2023-05-20T00:46:23;13.10;99.90
13561;DHT22;6852;51.686;5.314;2023-05-20T00:48:52;13.10;99.90
13561;DHT22;6852;51.686;5.314;2023-05-20T00:51:19;13.00;99.90
13561;DHT22;6852;51.686;5.314;2023-05-20T00:53:46;12.90;99.90
13561;DHT22;6852;51.686;5.314;2023-05-20T00:56:13;12.90;99.90
13561;DHT22;6852;51.686;5.314;2023-05-20T00:58:41;12.90;99.90
13561;DHT22;6852;51.686;5.314;2023-05-20T01:01:07;12.90;99.90
13561;DHT22;6852;51.686;5.314;2023-05-20T01:03:35;12.90;99.90
13561;DHT22;6852;51.686;5.314;2023-05-20T01:06:02;12.80;99.90
13561;DHT22;6852;51.686;5.314;2023-05-20T01:08:29;12.80;99.90
13561;DHT22;6852;51.686;5.314;2023-05-20T01:11:08;12.80;99.90
13561;DHT22;6852;51.686;5.314;2023-05-20T01:13:49;12.80;99.90
13561;DHT22;6852;51.686;5.314;2023-05-20T01:16:19;12.80;99.90
13561;DHT22;6852;51.686;5.314;2023-05-20T01:18:50;12.80;99.90
13561;DHT22;6852;51.686;5.314;2023-05-20T01:21:21;12.80;99.90
13561;DHT22;6852;51.686;5.314;2023-05-20T01:23:48;12.80;99.90
13561;DHT22;6852;51.686;5.314;2023-05-20T01:26:15;12.70;99.90
13561;DHT22;6852;51.686;5.314;2023-05-20T01:28:42;12.80;99.90
13561;DHT22;6852;51.686;5.314;2023-05-20T01:31:23;12.70;99.90
13561;DHT22;6852;51.686;5.314;2023-05-20T01:33:55;12.60;99.90
13561;DHT22;6852;51.686;5.314;2023-05-20T01:36:25;12.60;99.90
13561;DHT22;6852;51.686;5.314;2023-05-20T01:38:54;12.60;99.90
13561;DHT22;6852;51.686;5.314;2023-05-20T01:41:23;12.60;99.90
13561;DHT22;6852;51.686;5.314;2023-05-20T01:43:50;12.60;99.90
13561;DHT22;6852;51.686;5.314;2023-05-20T01:46:17;12.50;99.90
13561;DHT22;6852;51.686;5.314;2023-05-20T01:48:44;12.60;99.90
13561;DHT22;6852;51.686;5.314;2023-05-20T01:51:11;12.50;99.90
13561;DHT22;6852;51.686;5.314;2023-05-20T01:53:38;12.60;99.90
13561;DHT22;6852;51.686;5.314;2023-05-20T01:56:05;12.60;99.90
13561;DHT22;6852;51.686;5.314;2023-05-20T01:58:32;12.50;99.90
13561;DHT22;6852;51.686;5.314;2023-05-20T02:00:59;12.50;99.90
13561;DHT22;6852;51.686;5.314;2023-05-20T02:03:27;12.50;99.90
13561;DHT22;6852;51.686;5.314;2023-05-20T02:05:54;12.50;99.90
13561;DHT22;6852;51.686;5.314;2023-05-20T02:08:21;12.40;99.90
13561;DHT22;6852;51.686;5.314;2023-05-20T02:10:48;12.30;99.90
13561;DHT22;6852;51.686;5.314;2023-05-20T02:13:15;12.30;99.90
13561;DHT22;6852;51.686;5.314;2023-05-20T02:15:42;12.20;99.90
13561;DHT22;6852;51.686;5.314;2023-05-20T02:18:09;12.30;99.90
13561;DHT22;6852;51.686;5.314;2023-05-20T02:20:38;12.30;99.90
13561;DHT22;6852;51.686;5.314;2023-05-20T02:23:05;12.30;99.90
13561;DHT22;6852;51.686;5.314;2023-05-20T02:25:32;12.20;99.90
13561;DHT22;6852;51.686;5.314;2023-05-20T02:27:59;12.30;99.90
13561;DHT22;6852;51.686;5.314;2023-05-20T02:30:26;12.30;99.90
13561;DHT22;6852;51.686;5.314;2023-05-20T02:32:53;12.40;99.90
13561;DHT22;6852;51.686;5.314;2023-05-20T02:35:20;12.40;99.90
13561;DHT22;6852;51.686;5.314;2023-05-20T02:37:47;12.40;99.90
13561;DHT22;6852;51.686;5.314;2023-05-20T02:40:14;12.50;99.90
13561;DHT22;6852;51.686;5.314;2023-05-20T02:42:41;12.40;99.90
13561;DHT22;6852;51.686;5.314;2023-05-20T02:45:08;12.30;99.90
13561;DHT22;6852;51.686;5.314;2023-05-20T02:47:35;12.30;99.90
13561;DHT22;6852;51.686;5.314;2023-05-20T02:50:02;12.30;99.90
13561;DHT22;6852;51.686;5.314;2023-05-20T02:52:29;12.20;99.90
13561;DHT22;6852;51.686;5.314;2023-05-20T02:54:57;12.20;99.90
13561;DHT22;6852;51.686;5.314;2023-05-20T02:57:23;12.10;99.90
13561;DHT22;6852;51.686;5.314;2023-05-20T02:59:53;12.20;99.90
13561;DHT22;6852;51.686;5.314;2023-05-20T03:02:20;12.30;99.90
13561;DHT22;6852;51.686;5.314;2023-05-20T03:04:49;12.30;99.90
13561;DHT22;6852;51.686;5.314;2023-05-20T03:07:16;12.10;99.90
13561;DHT22;6852;51.686;5.314;2023-05-20T03:09:45;12.10;99.90
13561;DHT22;6852;51.686;5.314;2023-05-20T03:12:12;12.10;99.90
13561;DHT22;6852;51.686;5.314;2023-05-20T03:14:39;12.10;99.90
13561;DHT22;6852;51.686;5.314;2023-05-20T03:17:07;12.10;99.90
13561;DHT22;6852;51.686;5.314;2023-05-20T03:19:34;12.10;99.90
13561;DHT22;6852;51.686;5.314;2023-05-20T03:22:01;12.00;99.90
13561;DHT22;6852;51.686;5.314;2023-05-20T03:24:28;11.90;99.90
13561;DHT22;6852;51.686;5.314;2023-05-20T03:26:55;11.90;99.90
13561;DHT22;6852;51.686;5.314;2023-05-20T03:29:22;11.90;99.90
13561;DHT22;6852;51.686;5.314;2023-05-20T03:31:49;11.80;99.90
13561;DHT22;6852;51.686;5.314;2023-05-20T03:34:16;11.80;99.90
13561;DHT22;6852;51.686;5.314;2023-05-20T03:36:43;11.80;99.90
13561;DHT22;6852;51.686;5.314;2023-05-20T03:39:10;11.80;99.90
13561;DHT22;6852;51.686;5.314;2023-05-20T03:41:37;11.80;99.90
13561;DHT22;6852;51.686;5.314;2023-05-20T03:44:04;11.70;99.90
13561;DHT22;6852;51.686;5.314;2023-05-20T03:46:31;11.80;99.90
13561;DHT22;6852;51.686;5.314;2023-05-20T03:49:00;11.80;99.90
13561;DHT22;6852;51.686;5.314;2023-05-20T03:51:31;11.80;99.90
13561;DHT22;6852;51.686;5.314;2023-05-20T03:53:58;11.80;99.90
13561;DHT22;6852;51.686;5.314;2023-05-20T03:56:25;11.70;99.90
13561;DHT22;6852;51.686;5.314;2023-05-20T03:58:52;11.80;99.90
13561;DHT22;6852;51.686;5.314;2023-05-20T04:01:19;11.80;99.90
13561;DHT22;6852;51.686;5.314;2023-05-20T04:03:46;11.80;99.90
13561;DHT22;6852;51.686;5.314;2023-05-20T04:06:14;11.70;99.90
13561;DHT22;6852;51.686;5.314;2023-05-20T04:08:41;11.70;99.90
13561;DHT22;6852;51.686;5.314;2023-05-20T04:11:07;11.70;99.90
13561;DHT22;6852;51.686;5.314;2023-05-20T04:13:34;11.80;99.90
13561;DHT22;6852;51.686;5.314;2023-05-20T04:16:01;11.80;99.90
13561;DHT22;6852;51.686;5.314;2023-05-20T04:18:30;11.70;99.90
13561;DHT22;6852;51.686;5.314;2023-05-20T04:20:57;11.70;99.90
13561;DHT22;6852;51.686;5.314;2023-05-20T04:23:27;11.60;99.90
13561;DHT22;6852;51.686;5.314;2023-05-20T04:25:54;11.70;99.90
13561;DHT22;6852;51.686;5.314;2023-05-20T04:28:22;11.70;99.90
13561;DHT22;6852;51.686;5.314;2023-05-20T04:31:00;11.70;99.90
13561;DHT22;6852;51.686;5.314;2023-05-20T04:33:30;11.80;99.90
13561;DHT22;6852;51.686;5.314;2023-05-20T04:35:58;11.70;99.90
13561;DHT22;6852;51.686;5.314;2023-05-20T04:38:27;11.80;99.90
13561;DHT22;6852;51.686;5.314;2023-05-20T04:40:58;11.80;99.90
13561;DHT22;6852;51.686;5.314;2023-05-20T04:43:27;11.90;99.90
13561;DHT22;6852;51.686;5.314;2023-05-20T04:45:56;11.90;99.90
13561;DHT22;6852;51.686;5.314;2023-05-20T04:48:23;11.90;99.90
13561;DHT22;6852;51.686;5.314;2023-05-20T04:50:51;11.90;99.90
13561;DHT22;6852;51.686;5.314;2023-05-20T04:53:18;11.90;99.90
13561;DHT22;6852;51.686;5.314;2023-05-20T04:55:45;12.10;99.90
13561;DHT22;6852;51.686;5.314;2023-05-20T04:58:12;12.00;99.90
13561;DHT22;6852;51.686;5.314;2023-05-20T05:00:43;12.00;99.90
13561;DHT22;6852;51.686;5.314;2023-05-20T05:03:11;12.10;99.90
13561;DHT22;6852;51.686;5.314;2023-05-20T05:05:41;12.20;99.90
13561;DHT22;6852;51.686;5.314;2023-05-20T05:08:09;12.10;99.90
13561;DHT22;6852;51.686;5.314;2023-05-20T05:10:37;12.10;99.90
13561;DHT22;6852;51.686;5.314;2023-05-20T05:13:04;12.30;99.90
13561;DHT22;6852;51.686;5.314;2023-05-20T05:15:30;12.40;99.90
13561;DHT22;6852;51.686;5.314;2023-05-20T05:17:58;12.50;99.90
13561;DHT22;6852;51.686;5.314;2023-05-20T05:20:25;12.60;99.90
13561;DHT22;6852;51.686;5.314;2023-05-20T05:22:51;12.60;99.90
13561;DHT22;6852;51.686;5.314;2023-05-20T05:25:18;12.60;99.90
13561;DHT22;6852;51.686;5.314;2023-05-20T05:27:45;12.60;99.90
13561;DHT22;6852;51.686;5.314;2023-05-20T05:30:16;12.80;99.90
13561;DHT22;6852;51.686;5.314;2023-05-20T05:32:43;12.80;99.90
13561;DHT22;6852;51.686;5.314;2023-05-20T05:35:10;12.90;99.90
13561;DHT22;6852;51.686;5.314;2023-05-20T05:37:37;12.90;99.90
13561;DHT22;6852;51.686;5.314;2023-05-20T05:40:04;12.80;99.90
13561;DHT22;6852;51.686;5.314;2023-05-20T05:42:31;12.90;99.90
13561;DHT22;6852;51.686;5.314;2023-05-20T05:44:58;13.10;99.90
13561;DHT22;6852;51.686;5.314;2023-05-20T05:47:25;13.00;99.90
13561;DHT22;6852;51.686;5.314;2023-05-20T05:49:58;13.20;99.90
13561;DHT22;6852;51.686;5.314;2023-05-20T05:52:26;13.20;99.90
13561;DHT22;6852;51.686;5.314;2023-05-20T05:54:53;13.20;99.90
13561;DHT22;6852;51.686;5.314;2023-05-20T05:57:21;13.30;99.90
13561;DHT22;6852;51.686;5.314;2023-05-20T05:59:48;13.30;99.90
13561;DHT22;6852;51.686;5.314;2023-05-20T06:02:14;13.20;99.90
13561;DHT22;6852;51.686;5.314;2023-05-20T06:04:42;13.30;99.90
13561;DHT22;6852;51.686;5.314;2023-05-20T06:07:08;13.30;99.90
13561;DHT22;6852;51.686;5.314;2023-05-20T06:09:37;13.40;99.90
13561;DHT22;6852;51.686;5.314;2023-05-20T06:12:04;13.60;99.90
13561;DHT22;6852;51.686;5.314;2023-05-20T06:14:31;13.70;99.90
13561;DHT22;6852;51.686;5.314;2023-05-20T06:16:58;13.80;99.90
13561;DHT22;6852;51.686;5.314;2023-05-20T06:19:25;13.90;99.90
13561;DHT22;6852;51.686;5.314;2023-05-20T06:21:52;13.90;99.90
13561;DHT22;6852;51.686;5.314;2023-05-20T06:24:19;14.00;99.90
13561;DHT22;6852;51.686;5.314;2023-05-20T06:26:49;14.00;99.90
13561;DHT22;6852;51.686;5.314;2023-05-20T06:29:16;14.00;99.90
13561;DHT22;6852;51.686;5.314;2023-05-20T06:31:43;14.20;99.90
13561;DHT22;6852;51.686;5.314;2023-05-20T06:34:10;14.20;99.90
13561;DHT22;6852;51.686;5.314;2023-05-20T06:36:37;14.30;99.90
13561;DHT22;6852;51.686;5.314;2023-05-20T06:39:04;14.40;99.90
13561;DHT22;6852;51.686;5.314;2023-05-20T06:41:38;14.50;99.90
13561;DHT22;6852;51.686;5.314;2023-05-20T06:44:05;14.60;99.90
13561;DHT22;6852;51.686;5.314;2023-05-20T06:46:33;14.90;99.90
13561;DHT22;6852;51.686;5.314;2023-05-20T06:49:00;15.00;99.90
13561;DHT22;6852;51.686;5.314;2023-05-20T06:51:27;15.30;99.90
13561;DHT22;6852;51.686;5.314;2023-05-20T06:53:54;15.50;99.90
13561;DHT22;6852;51.686;5.314;2023-05-20T06:56:26;15.60;99.90
13561;DHT22;6852;51.686;5.314;2023-05-20T06:58:54;15.80;99.90
13561;DHT22;6852;51.686;5.314;2023-05-20T07:01:21;15.80;99.90
13561;DHT22;6852;51.686;5.314;2023-05-20T07:03:48;16.00;99.90
13561;DHT22;6852;51.686;5.314;2023-05-20T07:06:15;16.20;99.90
13561;DHT22;6852;51.686;5.314;2023-05-20T07:08:42;16.00;99.90
13561;DHT22;6852;51.686;5.314;2023-05-20T07:11:09;16.00;99.90
13561;DHT22;6852;51.686;5.314;2023-05-20T07:13:36;16.20;99.90
13561;DHT22;6852;51.686;5.314;2023-05-20T07:16:04;16.40;99.90
13561;DHT22;6852;51.686;5.314;2023-05-20T07:18:31;16.60;99.90
13561;DHT22;6852;51.686;5.314;2023-05-20T07:20:58;16.60;99.90
13561;DHT22;6852;51.686;5.314;2023-05-20T07:23:25;16.90;99.90
13561;DHT22;6852;51.686;5.314;2023-05-20T07:25:52;17.10;99.90
13561;DHT22;6852;51.686;5.314;2023-05-20T07:28:20;17.10;99.90
13561;DHT22;6852;51.686;5.314;2023-05-20T07:30:48;17.40;99.90
13561;DHT22;6852;51.686;5.314;2023-05-20T07:33:21;17.50;99.90
13561;DHT22;6852;51.686;5.314;2023-05-20T07:35:48;17.60;99.90
13561;DHT22;6852;51.686;5.314;2023-05-20T07:38:15;17.60;99.90
13561;DHT22;6852;51.686;5.314;2023-05-20T07:40:42;17.50;99.90
13561;DHT22;6852;51.686;5.314;2023-05-20T07:43:09;17.50;99.90
13561;DHT22;6852;51.686;5.314;2023-05-20T07:45:36;18.10;99.90
13561;DHT22;6852;51.686;5.314;2023-05-20T07:48:04;17.80;99.90
13561;DHT22;6852;51.686;5.314;2023-05-20T07:50:32;17.60;99.90
13561;DHT22;6852;51.686;5.314;2023-05-20T07:52:59;17.70;99.90
13561;DHT22;6852;51.686;5.314;2023-05-20T07:55:26;17.90;99.90
13561;DHT22;6852;51.686;5.314;2023-05-20T07:57:53;18.10;99.90
13561;DHT22;6852;51.686;5.314;2023-05-20T08:00:20;17.90;99.90
13561;DHT22;6852;51.686;5.314;2023-05-20T08:02:47;18.20;99.90
13561;DHT22;6852;51.686;5.314;2023-05-20T08:05:14;18.40;99.90
13561;DHT22;6852;51.686;5.314;2023-05-20T08:07:41;18.20;99.90
13561;DHT22;6852;51.686;5.314;2023-05-20T08:10:08;18.20;99.90
13561;DHT22;6852;51.686;5.314;2023-05-20T08:12:35;18.30;99.90
13561;DHT22;6852;51.686;5.314;2023-05-20T08:15:03;18.80;99.90
13561;DHT22;6852;51.686;5.314;2023-05-20T08:17:31;19.50;99.90
13561;DHT22;6852;51.686;5.314;2023-05-20T08:19:58;19.40;99.90
13561;DHT22;6852;51.686;5.314;2023-05-20T08:22:25;19.50;99.90
13561;DHT22;6852;51.686;5.314;2023-05-20T08:24:51;19.00;99.90
13561;DHT22;6852;51.686;5.314;2023-05-20T08:27:18;19.00;99.90
13561;DHT22;6852;51.686;5.314;2023-05-20T08:29:45;18.90;99.90
13561;DHT22;6852;51.686;5.314;2023-05-20T08:32:12;19.10;99.90
13561;DHT22;6852;51.686;5.314;2023-05-20T08:34:39;19.00;99.90
13561;DHT22;6852;51.686;5.314;2023-05-20T08:37:06;19.00;99.90
13561;DHT22;6852;51.686;5.314;2023-05-20T08:39:33;19.20;99.90
13561;DHT22;6852;51.686;5.314;2023-05-20T08:42:01;19.00;99.90
13561;DHT22;6852;51.686;5.314;2023-05-20T08:44:29;18.80;99.90
13561;DHT22;6852;51.686;5.314;2023-05-20T08:46:56;18.90;99.90
13561;DHT22;6852;51.686;5.314;2023-05-20T08:49:23;19.70;99.90
13561;DHT22;6852;51.686;5.314;2023-05-20T08:51:50;19.60;99.90
13561;DHT22;6852;51.686;5.314;2023-05-20T08:54:18;19.30;99.90
13561;DHT22;6852;51.686;5.314;2023-05-20T08:56:47;19.50;99.90
13561;DHT22;6852;51.686;5.314;2023-05-20T08:59:14;19.50;99.90
13561;DHT22;6852;51.686;5.314;2023-05-20T09:01:43;20.10;99.90
13561;DHT22;6852;51.686;5.314;2023-05-20T09:04:10;20.10;99.90
13561;DHT22;6852;51.686;5.314;2023-05-20T09:06:43;20.10;99.90
13561;DHT22;6852;51.686;5.314;2023-05-20T09:09:11;20.30;99.90
13561;DHT22;6852;51.686;5.314;2023-05-20T09:11:39;20.50;99.90
13561;DHT22;6852;51.686;5.314;2023-05-20T09:14:07;20.70;99.90
13561;DHT22;6852;51.686;5.314;2023-05-20T09:16:34;20.10;99.90
13561;DHT22;6852;51.686;5.314;2023-05-20T09:19:04;20.00;99.90
13561;DHT22;6852;51.686;5.314;2023-05-20T09:21:32;19.90;99.90
13561;DHT22;6852;51.686;5.314;2023-05-20T09:24:01;19.90;99.90
13561;DHT22;6852;51.686;5.314;2023-05-20T09:26:28;19.90;99.90
13561;DHT22;6852;51.686;5.314;2023-05-20T09:28:59;19.70;99.90
13561;DHT22;6852;51.686;5.314;2023-05-20T09:31:32;19.70;99.90
13561;DHT22;6852;51.686;5.314;2023-05-20T09:34:00;20.40;99.90
13561;DHT22;6852;51.686;5.314;2023-05-20T09:36:28;20.20;99.90
13561;DHT22;6852;51.686;5.314;2023-05-20T09:39:00;20.10;99.90
13561;DHT22;6852;51.686;5.314;2023-05-20T09:42:06;19.40;99.90
13561;DHT22;6852;51.686;5.314;2023-05-20T09:44:35;20.00;99.90
13561;DHT22;6852;51.686;5.314;2023-05-20T09:47:04;19.60;99.90
13561;DHT22;6852;51.686;5.314;2023-05-20T09:49:34;19.60;99.90
13561;DHT22;6852;51.686;5.314;2023-05-20T09:52:02;19.60;99.90
13561;DHT22;6852;51.686;5.314;2023-05-20T09:54:30;20.20;99.90
13561;DHT22;6852;51.686;5.314;2023-05-20T09:56:59;20.30;99.90
13561;DHT22;6852;51.686;5.314;2023-05-20T09:59:26;20.40;99.90
13561;DHT22;6852;51.686;5.314;2023-05-20T10:01:53;20.70;99.90
13561;DHT22;6852;51.686;5.314;2023-05-20T10:04:20;20.60;99.90
13561;DHT22;6852;51.686;5.314;2023-05-20T10:13:15;20.60;99.90
13561;DHT22;6852;51.686;5.314;2023-05-20T10:21:23;20.60;99.90
13561;DHT22;6852;51.686;5.314;2023-05-20T10:23:51;20.60;99.90
13561;DHT22;6852;51.686;5.314;2023-05-20T10:26:18;20.50;99.90
13561;DHT22;6852;51.686;5.314;2023-05-20T10:28:46;20.80;99.90
13561;DHT22;6852;51.686;5.314;2023-05-20T10:31:20;20.40;99.90
13561;DHT22;6852;51.686;5.314;2023-05-20T10:33:47;20.60;99.90
13561;DHT22;6852;51.686;5.314;2023-05-20T10:36:28;20.70;99.90
13561;DHT22;6852;51.686;5.314;2023-05-20T10:38:58;20.60;99.90
13561;DHT22;6852;51.686;5.314;2023-05-20T10:41:27;20.60;99.90
13561;DHT22;6852;51.686;5.314;2023-05-20T10:44:04;20.60;99.90
13561;DHT22;6852;51.686;5.314;2023-05-20T10:46:33;20.60;99.90
13561;DHT22;6852;51.686;5.314;2023-05-20T10:49:20;20.50;99.90
13561;DHT22;6852;51.686;5.314;2023-05-20T10:51:50;20.60;99.90
13561;DHT22;6852;51.686;5.314;2023-05-20T10:54:18;20.90;99.90
13561;DHT22;6852;51.686;5.314;2023-05-20T10:56:52;21.10;99.90
13561;DHT22;6852;51.686;5.314;2023-05-20T10:59:20;20.80;99.90
13561;DHT22;6852;51.686;5.314;2023-05-20T11:01:50;20.70;99.90
13561;DHT22;6852;51.686;5.314;2023-05-20T11:04:17;20.60;99.90
13561;DHT22;6852;51.686;5.314;2023-05-20T11:06:51;20.60;99.90
13561;DHT22;6852;51.686;5.314;2023-05-20T11:09:21;20.90;99.90
13561;DHT22;6852;51.686;5.314;2023-05-20T11:11:50;20.70;99.90
13561;DHT22;6852;51.686;5.314;2023-05-20T11:14:18;20.60;99.90
13561;DHT22;6852;51.686;5.314;2023-05-20T11:16:49;20.40;99.90
13561;DHT22;6852;51.686;5.314;2023-05-20T11:19:16;20.80;99.90
13561;DHT22;6852;51.686;5.314;2023-05-20T11:21:46;21.20;99.90
13561;DHT22;6852;51.686;5.314;2023-05-20T11:24:22;20.70;99.90
13561;DHT22;6852;51.686;5.314;2023-05-20T11:26:51;20.70;99.90
13561;DHT22;6852;51.686;5.314;2023-05-20T11:29:19;21.20;99.90
13561;DHT22;6852;51.686;5.314;2023-05-20T11:31:48;21.20;99.90
13561;DHT22;6852;51.686;5.314;2023-05-20T11:34:15;21.00;99.90
13561;DHT22;6852;51.686;5.314;2023-05-20T11:36:45;21.50;99.90
13561;DHT22;6852;51.686;5.314;2023-05-20T11:39:13;21.60;99.90
13561;DHT22;6852;51.686;5.314;2023-05-20T11:41:43;21.00;99.90
13561;DHT22;6852;51.686;5.314;2023-05-20T11:44:10;20.40;99.90
13561;DHT22;6852;51.686;5.314;2023-05-20T11:46:42;20.20;99.90
13561;DHT22;6852;51.686;5.314;2023-05-20T11:49:09;20.10;99.90
13561;DHT22;6852;51.686;5.314;2023-05-20T11:51:38;20.00;99.90
13561;DHT22;6852;51.686;5.314;2023-05-20T11:54:07;20.30;99.90
13561;DHT22;6852;51.686;5.314;2023-05-20T11:56:38;21.10;99.90
13561;DHT22;6852;51.686;5.314;2023-05-20T11:59:08;21.40;99.90
13561;DHT22;6852;51.686;5.314;2023-05-20T12:01:37;21.60;99.90
13561;DHT22;6852;51.686;5.314;2023-05-20T12:04:07;21.30;99.90
13561;DHT22;6852;51.686;5.314;2023-05-20T12:06:35;21.20;99.90
13561;DHT22;6852;51.686;5.314;2023-05-20T12:09:06;21.70;99.90
13561;DHT22;6852;51.686;5.314;2023-05-20T12:11:35;22.10;99.90
13561;DHT22;6852;51.686;5.314;2023-05-20T12:14:03;21.80;99.90
13561;DHT22;6852;51.686;5.314;2023-05-20T12:16:31;21.60;99.90
13561;DHT22;6852;51.686;5.314;2023-05-20T12:18:59;21.60;99.90
13561;DHT22;6852;51.686;5.314;2023-05-20T12:21:28;21.90;99.90
13561;DHT22;6852;51.686;5.314;2023-05-20T12:23:55;21.70;99.90
13561;DHT22;6852;51.686;5.314;2023-05-20T12:26:25;21.70;99.90
13561;DHT22;6852;51.686;5.314;2023-05-20T12:28:53;21.90;99.90
13561;DHT22;6852;51.686;5.314;2023-05-20T12:31:20;21.60;99.90
13561;DHT22;6852;51.686;5.314;2023-05-20T12:33:47;21.80;99.90
13561;DHT22;6852;51.686;5.314;2023-05-20T12:36:14;22.10;99.90
13561;DHT22;6852;51.686;5.314;2023-05-20T12:38:41;21.90;99.90
13561;DHT22;6852;51.686;5.314;2023-05-20T12:41:08;21.60;99.90
13561;DHT22;6852;51.686;5.314;2023-05-20T12:43:35;21.50;99.90
13561;DHT22;6852;51.686;5.314;2023-05-20T12:46:03;21.50;99.90
13561;DHT22;6852;51.686;5.314;2023-05-20T12:48:30;21.40;99.90
13561;DHT22;6852;51.686;5.314;2023-05-20T12:50:57;21.10;99.90
13561;DHT22;6852;51.686;5.314;2023-05-20T12:53:24;21.20;99.90
13561;DHT22;6852;51.686;5.314;2023-05-20T12:55:51;21.00;99.90
13561;DHT22;6852;51.686;5.314;2023-05-20T12:58:18;20.90;99.90
13561;DHT22;6852;51.686;5.314;2023-05-20T13:00:45;20.90;99.90
13561;DHT22;6852;51.686;5.314;2023-05-20T13:03:12;21.10;99.90
13561;DHT22;6852;51.686;5.314;2023-05-20T13:05:39;21.10;99.90
13561;DHT22;6852;51.686;5.314;2023-05-20T13:08:06;21.10;99.90
13561;DHT22;6852;51.686;5.314;2023-05-20T13:10:35;21.00;99.90
13561;DHT22;6852;51.686;5.314;2023-05-20T13:13:03;21.00;99.90
13561;DHT22;6852;51.686;5.314;2023-05-20T13:15:30;21.00;99.90
13561;DHT22;6852;51.686;5.314;2023-05-20T13:17:59;20.70;99.90
13561;DHT22;6852;51.686;5.314;2023-05-20T13:20:28;20.90;99.90
13561;DHT22;6852;51.686;5.314;2023-05-20T13:22:55;20.90;99.90
13561;DHT22;6852;51.686;5.314;2023-05-20T13:25:21;20.90;99.90
13561;DHT22;6852;51.686;5.314;2023-05-20T13:27:49;21.00;99.90
13561;DHT22;6852;51.686;5.314;2023-05-20T13:30:16;20.90;99.90
13561;DHT22;6852;51.686;5.314;2023-05-20T13:32:43;21.20;99.90
13561;DHT22;6852;51.686;5.314;2023-05-20T13:35:10;21.30;99.90
13561;DHT22;6852;51.686;5.314;2023-05-20T13:37:38;21.10;99.90
13561;DHT22;6852;51.686;5.314;2023-05-20T13:40:05;21.00;99.90
13561;DHT22;6852;51.686;5.314;2023-05-20T13:42:33;21.00;99.90
13561;DHT22;6852;51.686;5.314;2023-05-20T13:45:00;20.90;99.90
13561;DHT22;6852;51.686;5.314;2023-05-20T13:47:27;20.90;99.90
13561;DHT22;6852;51.686;5.314;2023-05-20T13:49:54;20.70;99.90
13561;DHT22;6852;51.686;5.314;2023-05-20T13:52:21;20.90;99.90
13561;DHT22;6852;51.686;5.314;2023-05-20T13:54:48;21.00;99.90
13561;DHT22;6852;51.686;5.314;2023-05-20T13:57:15;21.10;99.90
13561;DHT22;6852;51.686;5.314;2023-05-20T13:59:42;21.00;99.90
13561;DHT22;6852;51.686;5.314;2023-05-20T14:02:09;21.10;99.90
13561;DHT22;6852;51.686;5.314;2023-05-20T14:04:36;20.90;99.90
13561;DHT22;6852;51.686;5.314;2023-05-20T14:07:05;21.00;99.90
13561;DHT22;6852;51.686;5.314;2023-05-20T14:09:35;21.10;99.90
13561;DHT22;6852;51.686;5.314;2023-05-20T14:12:05;21.00;99.90
13561;DHT22;6852;51.686;5.314;2023-05-20T14:14:32;21.10;99.90
13561;DHT22;6852;51.686;5.314;2023-05-20T14:16:59;21.10;99.90
13561;DHT22;6852;51.686;5.314;2023-05-20T14:19:26;21.00;99.90
13561;DHT22;6852;51.686;5.314;2023-05-20T14:21:53;20.60;99.90
13561;DHT22;6852;51.686;5.314;2023-05-20T14:24:20;20.70;99.90
13561;DHT22;6852;51.686;5.314;2023-05-20T14:26:49;20.90;99.90
13561;DHT22;6852;51.686;5.314;2023-05-20T14:29:16;20.80;99.90
13561;DHT22;6852;51.686;5.314;2023-05-20T14:31:43;20.80;99.90
13561;DHT22;6852;51.686;5.314;2023-05-20T14:34:11;20.90;99.90
13561;DHT22;6852;51.686;5.314;2023-05-20T14:36:37;20.90;99.90
13561;DHT22;6852;51.686;5.314;2023-05-20T14:39:05;20.80;99.90
13561;DHT22;6852;51.686;5.314;2023-05-20T14:41:31;20.60;99.90
13561;DHT22;6852;51.686;5.314;2023-05-20T14:43:58;20.70;99.90
13561;DHT22;6852;51.686;5.314;2023-05-20T14:46:25;20.60;99.90
13561;DHT22;6852;51.686;5.314;2023-05-20T14:48:52;20.60;99.90
13561;DHT22;6852;51.686;5.314;2023-05-20T14:51:19;20.50;99.90
13561;DHT22;6852;51.686;5.314;2023-05-20T14:53:46;20.60;99.90
13561;DHT22;6852;51.686;5.314;2023-05-20T14:56:13;20.50;99.90
13561;DHT22;6852;51.686;5.314;2023-05-20T14:58:40;20.50;99.90
13561;DHT22;6852;51.686;5.314;2023-05-20T15:01:07;20.60;99.90
13561;DHT22;6852;51.686;5.314;2023-05-20T15:03:34;20.60;99.90
13561;DHT22;6852;51.686;5.314;2023-05-20T15:06:02;20.60;99.90
13561;DHT22;6852;51.686;5.314;2023-05-20T15:08:29;20.60;99.90
13561;DHT22;6852;51.686;5.314;2023-05-20T15:10:57;20.60;99.90
13561;DHT22;6852;51.686;5.314;2023-05-20T15:13:23;20.60;99.90
13561;DHT22;6852;51.686;5.314;2023-05-20T15:15:50;20.60;99.90
13561;DHT22;6852;51.686;5.314;2023-05-20T15:18:17;20.70;99.90
13561;DHT22;6852;51.686;5.314;2023-05-20T15:20:44;20.90;99.90
13561;DHT22;6852;51.686;5.314;2023-05-20T15:23:11;20.80;99.90
13561;DHT22;6852;51.686;5.314;2023-05-20T15:25:38;20.70;99.90
13561;DHT22;6852;51.686;5.314;2023-05-20T15:28:05;20.70;99.90
13561;DHT22;6852;51.686;5.314;2023-05-20T15:30:32;20.70;99.90
13561;DHT22;6852;51.686;5.314;2023-05-20T15:32:59;20.60;99.90
13561;DHT22;6852;51.686;5.314;2023-05-20T15:35:27;20.80;99.90
13561;DHT22;6852;51.686;5.314;2023-05-20T15:37:54;20.80;99.90
13561;DHT22;6852;51.686;5.314;2023-05-20T15:40:21;20.90;99.90
13561;DHT22;6852;51.686;5.314;2023-05-20T15:42:49;20.90;99.90
13561;DHT22;6852;51.686;5.314;2023-05-20T15:45:16;21.00;99.90
13561;DHT22;6852;51.686;5.314;2023-05-20T15:47:43;20.70;99.90
13561;DHT22;6852;51.686;5.314;2023-05-20T15:50:10;20.70;99.90
13561;DHT22;6852;51.686;5.314;2023-05-20T15:52:38;20.80;99.90
13561;DHT22;6852;51.686;5.314;2023-05-20T15:55:06;20.90;99.90
13561;DHT22;6852;51.686;5.314;2023-05-20T15:57:33;20.70;99.90
13561;DHT22;6852;51.686;5.314;2023-05-20T16:00:00;20.60;99.90
13561;DHT22;6852;51.686;5.314;2023-05-20T16:02:27;20.60;99.90
13561;DHT22;6852;51.686;5.314;2023-05-20T16:04:58;20.60;99.90